sensor_id;sensor_type;location;lat;lon;timestamp;pressure;altitude;pressure_sealevel;temperature;humidity
45872;BME280;32333;55.844;-3.210;2022-08-01T00:01:49;99783.92;;;12.12;100.00
45872;BME280;32333;55.844;-3.210;2022-08-01T00:04:16;99777.06;;;11.41;100.00
45872;BME280;32333;55.844;-3.210;2022-08-01T00:06:43;99778.45;;;12.06;100.00
45872;BME280;32333;55.844;-3.210;2022-08-01T00:09:11;99774.17;;;11.93;100.00
45872;BME280;32333;55.844;-3.210;2022-08-01T00:11:39;99766.27;;;12.72;100.00
45872;BME280;32333;55.844;-3.210;2022-08-01T00:14:35;99765.43;;;13.21;100.00
45872;BME280;32333;55.844;-3.210;2022-08-01T00:17:03;99754.22;;;12.29;100.00
45872;BME280;32333;55.844;-3.210;2022-08-01T00:19:30;99747.33;;;12.61;100.00
45872;BME280;32333;55.844;-3.210;2022-08-01T00:21:58;99752.95;;;12.93;100.00
45872;BME280;32333;55.844;-3.210;2022-08-01T00:24:26;99753.30;;;14.31;100.00
45872;BME280;32333;55.844;-3.210;2022-08-01T00:26:53;99750.89;;;13.45;100.00
45872;BME280;32333;55.844;-3.210;2022-08-01T00:29:20;99753.61;;;12.78;100.00
45872;BME280;32333;55.844;-3.210;2022-08-01T00:31:48;99753.19;;;13.41;100.00
45872;BME280;32333;55.844;-3.210;2022-08-01T00:34:15;99753.23;;;13.32;100.00
45872;BME280;32333;55.844;-3.210;2022-08-01T00:36:43;99755.60;;;13.19;100.00
45872;BME280;32333;55.844;-3.210;2022-08-01T00:39:11;99757.17;;;13.24;100.00
45872;BME280;32333;55.844;-3.210;2022-08-01T00:41:39;99758.87;;;12.86;100.00
45872;BME280;32333;55.844;-3.210;2022-08-01T00:44:35;99765.05;;;11.51;100.00
45872;BME280;32333;55.844;-3.210;2022-08-01T00:47:04;99763.31;;;11.69;100.00
45872;BME280;32333;55.844;-3.210;2022-08-01T00:49:32;99759.52;;;12.58;100.00
45872;BME280;32333;55.844;-3.210;2022-08-01T00:51:59;99762.39;;;12.95;100.00
45872;BME280;32333;55.844;-3.210;2022-08-01T00:54:27;99763.32;;;12.89;100.00
45872;BME280;32333;55.844;-3.210;2022-08-01T00:56:56;99759.32;;;12.75;100.00
45872;BME280;32333;55.844;-3.210;2022-08-01T00:59:25;99758.48;;;12.16;100.00
45872;BME280;32333;55.844;-3.210;2022-08-01T01:01:53;99750.27;;;12.74;100.00
45872;BME280;32333;55.844;-3.210;2022-08-01T01:04:21;99753.86;;;12.08;100.00
45872;BME280;32333;55.844;-3.210;2022-08-01T01:06:51;99756.38;;;12.45;100.00
45872;BME280;32333;55.844;-3.210;2022-08-01T01:09:32;99756.40;;;10.85;100.00
45872;BME280;32333;55.844;-3.210;2022-08-01T01:14:39;99749.31;;;11.58;100.00
45872;BME280;32333;55.844;-3.210;2022-08-01T01:17:10;99751.61;;;12.72;100.00
45872;BME280;32333;55.844;-3.210;2022-08-01T01:19:44;99751.29;;;11.77;100.00
45872;BME280;32333;55.844;-3.210;2022-08-01T01:22:22;99750.59;;;12.94;100.00
45872;BME280;32333;55.844;-3.210;2022-08-01T01:25:04;99743.56;;;13.11;100.00
45872;BME280;32333;55.844;-3.210;2022-08-01T01:27:47;99740.30;;;13.23;100.00
45872;BME280;32333;55.844;-3.210;2022-08-01T01:30:16;99736.69;;;12.64;100.00
45872;BME280;32333;55.844;-3.210;2022-08-01T01:32:48;99735.00;;;13.27;100.00
45872;BME280;32333;55.844;-3.210;2022-08-01T01:35:21;99734.34;;;12.66;100.00
45872;BME280;32333;55.844;-3.210;2022-08-01T01:37:53;99737.21;;;13.00;100.00
45872;BME280;32333;55.844;-3.210;2022-08-01T01:40:22;99729.36;;;12.61;100.00
45872;BME280;32333;55.844;-3.210;2022-08-01T01:44:36;99723.44;;;12.96;100.00
45872;BME280;32333;55.844;-3.210;2022-08-01T01:47:05;99726.50;;;12.15;100.00
45872;BME280;32333;55.844;-3.210;2022-08-01T01:49:34;99728.94;;;11.54;100.00
45872;BME280;32333;55.844;-3.210;2022-08-01T01:52:02;99724.51;;;11.37;100.00
45872;BME280;32333;55.844;-3.210;2022-08-01T01:54:33;99720.98;;;12.02;100.00
45872;BME280;32333;55.844;-3.210;2022-08-01T01:57:03;99723.51;;;11.62;100.00
45872;BME280;32333;55.844;-3.210;2022-08-01T01:59:35;99731.64;;;12.37;100.00
45872;BME280;32333;55.844;-3.210;2022-08-01T02:02:05;99730.30;;;11.83;100.00
45872;BME280;32333;55.844;-3.210;2022-08-01T02:04:36;99731.96;;;11.88;100.00
45872;BME280;32333;55.844;-3.210;2022-08-01T02:07:06;99730.12;;;12.06;100.00
45872;BME280;32333;55.844;-3.210;2022-08-01T02:09:35;99729.75;;;12.62;100.00
45872;BME280;32333;55.844;-3.210;2022-08-01T02:14:35;99728.90;;;11.68;100.00
45872;BME280;32333;55.844;-3.210;2022-08-01T02:17:04;99723.12;;;12.11;100.00
45872;BME280;32333;55.844;-3.210;2022-08-01T02:19:33;99722.95;;;11.55;100.00
45872;BME280;32333;55.844;-3.210;2022-08-01T02:22:04;99721.09;;;12.02;100.00
45872;BME280;32333;55.844;-3.210;2022-08-01T02:24:37;99725.41;;;12.28;100.00
45872;BME280;32333;55.844;-3.210;2022-08-01T02:27:10;99732.36;;;11.34;100.00
45872;BME280;32333;55.844;-3.210;2022-08-01T02:29:42;99732.76;;;12.17;100.00
45872;BME280;32333;55.844;-3.210;2022-08-01T02:32:14;99726.49;;;11.48;100.00
45872;BME280;32333;55.844;-3.210;2022-08-01T02:34:46;99718.68;;;12.03;100.00
45872;BME280;32333;55.844;-3.210;2022-08-01T02:37:17;99714.18;;;12.20;100.00
45872;BME280;32333;55.844;-3.210;2022-08-01T02:39:48;99715.94;;;11.79;100.00
45872;BME280;32333;55.844;-3.210;2022-08-01T02:44:39;99718.85;;;11.80;100.00
45872;BME280;32333;55.844;-3.210;2022-08-01T02:47:10;99717.06;;;11.24;100.00
45872;BME280;32333;55.844;-3.210;2022-08-01T02:49:42;99717.07;;;11.51;100.00
45872;BME280;32333;55.844;-3.210;2022-08-01T02:52:15;99711.68;;;10.77;100.00
45872;BME280;32333;55.844;-3.210;2022-08-01T02:54:49;99708.92;;;10.53;100.00
45872;BME280;32333;55.844;-3.210;2022-08-01T02:57:47;99704.58;;;10.66;100.00
45872;BME280;32333;55.844;-3.210;2022-08-01T03:00:16;99703.89;;;10.67;100.00
45872;BME280;32333;55.844;-3.210;2022-08-01T03:02:46;99703.00;;;11.27;100.00
45872;BME280;32333;55.844;-3.210;2022-08-01T03:05:17;99706.33;;;11.74;100.00
45872;BME280;32333;55.844;-3.210;2022-08-01T03:07:45;99707.63;;;11.16;100.00
45872;BME280;32333;55.844;-3.210;2022-08-01T03:10:14;99708.46;;;10.98;100.00
45872;BME280;32333;55.844;-3.210;2022-08-01T03:14:37;99700.78;;;10.81;100.00
45872;BME280;32333;55.844;-3.210;2022-08-01T03:17:06;99708.18;;;10.03;100.00
45872;BME280;32333;55.844;-3.210;2022-08-01T03:19:35;99703.21;;;10.88;100.00
45872;BME280;32333;55.844;-3.210;2022-08-01T03:22:06;99704.73;;;11.34;100.00
45872;BME280;32333;55.844;-3.210;2022-08-01T03:24:36;99698.37;;;10.88;100.00
45872;BME280;32333;55.844;-3.210;2022-08-01T03:27:06;99693.63;;;11.70;100.00
45872;BME280;32333;55.844;-3.210;2022-08-01T03:29:36;99691.35;;;11.44;100.00
45872;BME280;32333;55.844;-3.210;2022-08-01T03:32:05;99694.70;;;10.79;100.00
45872;BME280;32333;55.844;-3.210;2022-08-01T03:34:33;99694.75;;;10.19;100.00
45872;BME280;32333;55.844;-3.210;2022-08-01T03:37:06;99693.64;;;9.98;100.00
45872;BME280;32333;55.844;-3.210;2022-08-01T03:39:40;99689.16;;;9.41;100.00
45872;BME280;32333;55.844;-3.210;2022-08-01T03:44:35;99686.52;;;10.72;100.00
45872;BME280;32333;55.844;-3.210;2022-08-01T03:47:08;99692.42;;;9.53;100.00
45872;BME280;32333;55.844;-3.210;2022-08-01T03:49:40;99688.87;;;10.18;100.00
45872;BME280;32333;55.844;-3.210;2022-08-01T03:52:09;99687.87;;;10.77;100.00
45872;BME280;32333;55.844;-3.210;2022-08-01T03:54:42;99692.35;;;10.87;100.00
45872;BME280;32333;55.844;-3.210;2022-08-01T03:57:10;99691.07;;;10.70;100.00
45872;BME280;32333;55.844;-3.210;2022-08-01T03:59:38;99692.13;;;10.93;100.00
45872;BME280;32333;55.844;-3.210;2022-08-01T04:02:07;99693.89;;;10.48;100.00
45872;BME280;32333;55.844;-3.210;2022-08-01T04:04:35;99690.83;;;9.32;100.00
45872;BME280;32333;55.844;-3.210;2022-08-01T04:07:02;99684.71;;;10.50;100.00
45872;BME280;32333;55.844;-3.210;2022-08-01T04:09:31;99681.71;;;9.88;100.00
45872;BME280;32333;55.844;-3.210;2022-08-01T04:11:59;99683.29;;;9.31;100.00
45872;BME280;32333;55.844;-3.210;2022-08-01T04:14:36;99677.92;;;9.41;100.00
45872;BME280;32333;55.844;-3.210;2022-08-01T04:17:04;99674.31;;;9.49;100.00
45872;BME280;32333;55.844;-3.210;2022-08-01T04:19:31;99676.58;;;10.54;100.00
45872;BME280;32333;55.844;-3.210;2022-08-01T04:22:00;99682.87;;;10.21;100.00
45872;BME280;32333;55.844;-3.210;2022-08-01T04:24:28;99684.61;;;10.31;100.00
45872;BME280;32333;55.844;-3.210;2022-08-01T04:26:56;99685.11;;;9.55;100.00
45872;BME280;32333;55.844;-3.210;2022-08-01T04:29:26;99689.49;;;9.60;100.00
45872;BME280;32333;55.844;-3.210;2022-08-01T04:31:57;99693.28;;;9.24;100.00
45872;BME280;32333;55.844;-3.210;2022-08-01T04:34:27;99695.46;;;9.25;100.00
45872;BME280;32333;55.844;-3.210;2022-08-01T04:36:57;99696.56;;;10.03;100.00
45872;BME280;32333;55.844;-3.210;2022-08-01T04:39:28;99693.35;;;10.09;100.00
45872;BME280;32333;55.844;-3.210;2022-08-01T04:41:58;99693.21;;;9.82;100.00
45872;BME280;32333;55.844;-3.210;2022-08-01T04:44:36;99695.23;;;10.51;100.00
45872;BME280;32333;55.844;-3.210;2022-08-01T04:47:05;99701.09;;;10.89;100.00
45872;BME280;32333;55.844;-3.210;2022-08-01T04:49:35;99702.22;;;10.45;100.00
45872;BME280;32333;55.844;-3.210;2022-08-01T04:52:03;99704.23;;;9.85;100.00
45872;BME280;32333;55.844;-3.210;2022-08-01T04:54:32;99701.33;;;9.98;100.00
45872;BME280;32333;55.844;-3.210;2022-08-01T04:57:00;99701.80;;;9.75;100.00
45872;BME280;32333;55.844;-3.210;2022-08-01T04:59:29;99702.26;;;10.01;100.00
45872;BME280;32333;55.844;-3.210;2022-08-01T05:01:57;99702.71;;;10.63;100.00
45872;BME280;32333;55.844;-3.210;2022-08-01T05:04:25;99701.69;;;10.09;100.00
45872;BME280;32333;55.844;-3.210;2022-08-01T05:06:52;99704.70;;;11.19;100.00
45872;BME280;32333;55.844;-3.210;2022-08-01T05:09:20;99709.31;;;10.57;100.00
45872;BME280;32333;55.844;-3.210;2022-08-01T05:11:48;99712.30;;;10.80;100.00
45872;BME280;32333;55.844;-3.210;2022-08-01T05:14:36;99715.68;;;10.71;100.00
45872;BME280;32333;55.844;-3.210;2022-08-01T05:17:06;99717.07;;;11.31;100.00
45872;BME280;32333;55.844;-3.210;2022-08-01T05:19:36;99718.90;;;10.11;100.00
45872;BME280;32333;55.844;-3.210;2022-08-01T05:22:06;99716.78;;;10.12;100.00
45872;BME280;32333;55.844;-3.210;2022-08-01T05:24:35;99713.17;;;10.43;100.00
45872;BME280;32333;55.844;-3.210;2022-08-01T05:27:04;99713.93;;;10.02;100.00
45872;BME280;32333;55.844;-3.210;2022-08-01T05:29:33;99708.92;;;10.49;100.00
45872;BME280;32333;55.844;-3.210;2022-08-01T05:32:02;99709.71;;;10.12;100.00
45872;BME280;32333;55.844;-3.210;2022-08-01T05:34:29;99712.14;;;10.32;100.00
45872;BME280;32333;55.844;-3.210;2022-08-01T05:36:57;99714.75;;;10.16;100.00
45872;BME280;32333;55.844;-3.210;2022-08-01T05:39:24;99709.62;;;10.59;100.00
45872;BME280;32333;55.844;-3.210;2022-08-01T05:41:52;99710.99;;;10.32;100.00
45872;BME280;32333;55.844;-3.210;2022-08-01T05:44:35;99716.66;;;10.62;100.00
45872;BME280;32333;55.844;-3.210;2022-08-01T05:47:03;99718.92;;;10.86;100.00
45872;BME280;32333;55.844;-3.210;2022-08-01T05:49:30;99721.06;;;10.80;100.00
45872;BME280;32333;55.844;-3.210;2022-08-01T05:51:58;99723.77;;;10.51;100.00
45872;BME280;32333;55.844;-3.210;2022-08-01T05:54:26;99724.06;;;10.82;100.00
45872;BME280;32333;55.844;-3.210;2022-08-01T05:56:54;99722.22;;;9.92;100.00
45872;BME280;32333;55.844;-3.210;2022-08-01T05:59:22;99724.19;;;10.28;100.00
45872;BME280;32333;55.844;-3.210;2022-08-01T06:01:49;99726.74;;;9.85;100.00
45872;BME280;32333;55.844;-3.210;2022-08-01T06:04:17;99730.37;;;9.95;100.00
45872;BME280;32333;55.844;-3.210;2022-08-01T06:06:44;99725.30;;;9.67;100.00
45872;BME280;32333;55.844;-3.210;2022-08-01T06:09:12;99724.91;;;10.20;100.00
45872;BME280;32333;55.844;-3.210;2022-08-01T06:11:39;99726.91;;;9.87;100.00
45872;BME280;32333;55.844;-3.210;2022-08-01T06:14:35;99727.99;;;10.12;100.00
45872;BME280;32333;55.844;-3.210;2022-08-01T06:17:03;99729.38;;;9.63;100.00
45872;BME280;32333;55.844;-3.210;2022-08-01T06:19:30;99727.01;;;9.68;100.00
45872;BME280;32333;55.844;-3.210;2022-08-01T06:21:58;99728.33;;;10.69;100.00
45872;BME280;32333;55.844;-3.210;2022-08-01T06:24:26;99727.61;;;10.19;100.00
45872;BME280;32333;55.844;-3.210;2022-08-01T06:26:53;99725.74;;;10.72;100.00
45872;BME280;32333;55.844;-3.210;2022-08-01T06:29:20;99724.91;;;10.33;100.00
45872;BME280;32333;55.844;-3.210;2022-08-01T06:31:48;99724.07;;;9.72;100.00
45872;BME280;32333;55.844;-3.210;2022-08-01T06:34:15;99725.64;;;9.60;100.00
45872;BME280;32333;55.844;-3.210;2022-08-01T06:36:42;99719.50;;;9.74;100.00
45872;BME280;32333;55.844;-3.210;2022-08-01T06:39:11;99711.81;;;10.73;100.00
45872;BME280;32333;55.844;-3.210;2022-08-01T06:41:38;99704.82;;;11.02;100.00
45872;BME280;32333;55.844;-3.210;2022-08-01T06:44:35;99709.03;;;10.99;100.00
45872;BME280;32333;55.844;-3.210;2022-08-01T06:47:02;99707.94;;;10.45;100.00
45872;BME280;32333;55.844;-3.210;2022-08-01T06:49:30;99708.63;;;10.45;100.00
45872;BME280;32333;55.844;-3.210;2022-08-01T06:51:57;99707.75;;;10.33;100.00
45872;BME280;32333;55.844;-3.210;2022-08-01T06:54:25;99700.90;;;10.59;100.00
45872;BME280;32333;55.844;-3.210;2022-08-01T06:56:53;99703.06;;;9.98;100.00
45872;BME280;32333;55.844;-3.210;2022-08-01T06:59:20;99695.75;;;10.66;100.00
45872;BME280;32333;55.844;-3.210;2022-08-01T07:01:48;99693.98;;;10.70;100.00
45872;BME280;32333;55.844;-3.210;2022-08-01T07:04:16;99690.29;;;10.04;100.00
45872;BME280;32333;55.844;-3.210;2022-08-01T07:06:43;99686.76;;;10.03;100.00
45872;BME280;32333;55.844;-3.210;2022-08-01T07:09:12;99690.31;;;10.76;100.00
45872;BME280;32333;55.844;-3.210;2022-08-01T07:11:39;99685.82;;;10.98;100.00
45872;BME280;32333;55.844;-3.210;2022-08-01T07:14:35;99684.42;;;10.90;100.00
45872;BME280;32333;55.844;-3.210;2022-08-01T07:17:03;99693.65;;;10.31;100.00
45872;BME280;32333;55.844;-3.210;2022-08-01T07:19:30;99696.99;;;11.16;100.00
45872;BME280;32333;55.844;-3.210;2022-08-01T07:21:58;99697.54;;;11.95;100.00
45872;BME280;32333;55.844;-3.210;2022-08-01T07:24:26;99700.65;;;11.48;100.00
45872;BME280;32333;55.844;-3.210;2022-08-01T07:26:53;99700.19;;;11.58;100.00
45872;BME280;32333;55.844;-3.210;2022-08-01T07:29:22;99694.75;;;12.44;100.00
45872;BME280;32333;55.844;-3.210;2022-08-01T07:31:49;99696.80;;;11.64;100.00
45872;BME280;32333;55.844;-3.210;2022-08-01T07:34:17;99690.17;;;11.56;100.00
45872;BME280;32333;55.844;-3.210;2022-08-01T07:36:44;99687.89;;;12.31;100.00
45872;BME280;32333;55.844;-3.210;2022-08-01T07:39:11;99682.67;;;11.30;100.00
45872;BME280;32333;55.844;-3.210;2022-08-01T07:41:38;99678.02;;;12.27;100.00
45872;BME280;32333;55.844;-3.210;2022-08-01T07:44:36;99670.89;;;12.70;100.00
45872;BME280;32333;55.844;-3.210;2022-08-01T07:47:04;99672.03;;;13.12;100.00
45872;BME280;32333;55.844;-3.210;2022-08-01T07:49:32;99668.99;;;13.77;100.00
45872;BME280;32333;55.844;-3.210;2022-08-01T07:52:00;99663.05;;;13.93;100.00
45872;BME280;32333;55.844;-3.210;2022-08-01T07:54:27;99668.45;;;14.66;100.00
45872;BME280;32333;55.844;-3.210;2022-08-01T07:56:54;99664.57;;;14.77;93.51
45872;BME280;32333;55.844;-3.210;2022-08-01T07:59:22;99664.54;;;15.05;90.84
45872;BME280;32333;55.844;-3.210;2022-08-01T08:01:50;99666.26;;;15.79;89.28
45872;BME280;32333;55.844;-3.210;2022-08-01T08:04:17;99667.51;;;15.92;85.83
45872;BME280;32333;55.844;-3.210;2022-08-01T08:06:46;99665.08;;;15.81;82.98
45872;BME280;32333;55.844;-3.210;2022-08-01T08:09:13;99672.68;;;16.10;82.97
45872;BME280;32333;55.844;-3.210;2022-08-01T08:11:42;99673.40;;;16.99;79.85
45872;BME280;32333;55.844;-3.210;2022-08-01T08:14:36;99660.20;;;17.25;75.19
45872;BME280;32333;55.844;-3.210;2022-08-01T08:17:04;99658.94;;;16.10;79.93
45872;BME280;32333;55.844;-3.210;2022-08-01T08:19:31;99656.26;;;15.69;79.57
45872;BME280;32333;55.844;-3.210;2022-08-01T08:21:59;99659.25;;;16.46;80.68
45872;BME280;32333;55.844;-3.210;2022-08-01T08:24:27;99661.75;;;15.25;82.72
45872;BME280;32333;55.844;-3.210;2022-08-01T08:26:55;99665.09;;;16.00;80.23
45872;BME280;32333;55.844;-3.210;2022-08-01T08:29:24;99663.51;;;15.64;82.36
45872;BME280;32333;55.844;-3.210;2022-08-01T08:31:52;99664.96;;;16.66;79.20
45872;BME280;32333;55.844;-3.210;2022-08-01T08:34:21;99664.75;;;16.21;80.59
45872;BME280;32333;55.844;-3.210;2022-08-01T08:36:49;99664.48;;;17.26;79.86
45872;BME280;32333;55.844;-3.210;2022-08-01T08:39:17;99667.57;;;16.30;80.55
45872;BME280;32333;55.844;-3.210;2022-08-01T08:41:44;99660.57;;;15.26;77.99
45872;BME280;32333;55.844;-3.210;2022-08-01T08:44:35;99655.03;;;17.03;72.79
45872;BME280;32333;55.844;-3.210;2022-08-01T08:47:03;99651.57;;;17.85;66.99
45872;BME280;32333;55.844;-3.210;2022-08-01T08:49:34;99656.71;;;16.47;70.65
45872;BME280;32333;55.844;-3.210;2022-08-01T08:52:03;99654.00;;;16.12;72.17
45872;BME280;32333;55.844;-3.210;2022-08-01T08:54:32;99648.14;;;16.59;71.94
45872;BME280;32333;55.844;-3.210;2022-08-01T08:57:00;99654.52;;;16.01;70.33
45872;BME280;32333;55.844;-3.210;2022-08-01T08:59:28;99649.44;;;16.68;69.89
45872;BME280;32333;55.844;-3.210;2022-08-01T09:01:56;99651.71;;;16.55;69.47
45872;BME280;32333;55.844;-3.210;2022-08-01T09:04:25;99651.82;;;17.24;68.24
45872;BME280;32333;55.844;-3.210;2022-08-01T09:06:54;99647.40;;;16.66;68.50
45872;BME280;32333;55.844;-3.210;2022-08-01T09:09:22;99642.81;;;16.53;68.19
45872;BME280;32333;55.844;-3.210;2022-08-01T09:11:50;99637.80;;;16.69;69.17
45872;BME280;32333;55.844;-3.210;2022-08-01T09:14:44;99642.10;;;16.37;68.39
45872;BME280;32333;55.844;-3.210;2022-08-01T09:17:12;99640.98;;;15.57;70.42
45872;BME280;32333;55.844;-3.210;2022-08-01T09:19:41;99638.22;;;15.68;70.92
45872;BME280;32333;55.844;-3.210;2022-08-01T09:22:10;99638.45;;;15.75;70.07
45872;BME280;32333;55.844;-3.210;2022-08-01T09:24:38;99627.70;;;16.01;69.44
45872;BME280;32333;55.844;-3.210;2022-08-01T09:27:23;99628.77;;;15.83;70.37
45872;BME280;32333;55.844;-3.210;2022-08-01T09:29:52;99620.05;;;16.28;70.77
45872;BME280;32333;55.844;-3.210;2022-08-01T09:32:20;99623.71;;;16.38;70.44
45872;BME280;32333;55.844;-3.210;2022-08-01T09:34:49;99629.13;;;16.49;71.70
45872;BME280;32333;55.844;-3.210;2022-08-01T09:37:16;99619.01;;;17.88;68.23
45872;BME280;32333;55.844;-3.210;2022-08-01T09:39:57;99618.23;;;18.43;61.47
45872;BME280;32333;55.844;-3.210;2022-08-01T09:44:38;99617.35;;;16.76;64.15
45872;BME280;32333;55.844;-3.210;2022-08-01T09:47:06;99622.37;;;17.55;64.93
45872;BME280;32333;55.844;-3.210;2022-08-01T09:49:35;99619.43;;;17.67;63.94
45872;BME280;32333;55.844;-3.210;2022-08-01T09:52:13;99621.23;;;17.97;63.29
45872;BME280;32333;55.844;-3.210;2022-08-01T09:54:43;99622.39;;;17.39;62.56
45872;BME280;32333;55.844;-3.210;2022-08-01T09:57:19;99619.65;;;17.22;59.79
45872;BME280;32333;55.844;-3.210;2022-08-01T09:59:48;99610.66;;;16.55;61.09
45872;BME280;32333;55.844;-3.210;2022-08-01T10:02:30;99609.89;;;18.16;60.82
45872;BME280;32333;55.844;-3.210;2022-08-01T10:04:59;99611.50;;;17.30;62.32
45872;BME280;32333;55.844;-3.210;2022-08-01T10:07:27;99611.98;;;17.18;62.22
45872;BME280;32333;55.844;-3.210;2022-08-01T10:09:54;99607.74;;;16.39;65.48
45872;BME280;32333;55.844;-3.210;2022-08-01T10:14:36;99603.32;;;17.99;63.45
45872;BME280;32333;55.844;-3.210;2022-08-01T10:17:08;99608.85;;;17.96;62.14
45872;BME280;32333;55.844;-3.210;2022-08-01T10:19:36;99610.76;;;17.58;60.01
45872;BME280;32333;55.844;-3.210;2022-08-01T10:22:08;99611.76;;;18.13;56.38
45872;BME280;32333;55.844;-3.210;2022-08-01T10:24:37;99603.91;;;17.42;58.54
45872;BME280;32333;55.844;-3.210;2022-08-01T10:27:08;99599.16;;;17.54;57.52
45872;BME280;32333;55.844;-3.210;2022-08-01T10:29:40;99602.39;;;18.32;56.91
45872;BME280;32333;55.844;-3.210;2022-08-01T10:32:09;99604.38;;;17.68;56.52
45872;BME280;32333;55.844;-3.210;2022-08-01T10:34:37;99597.96;;;18.02;56.86
45872;BME280;32333;55.844;-3.210;2022-08-01T10:37:05;99592.04;;;17.77;58.67
45872;BME280;32333;55.844;-3.210;2022-08-01T10:39:34;99593.54;;;17.67;59.89
45872;BME280;32333;55.844;-3.210;2022-08-01T10:44:36;99602.54;;;18.42;56.53
45872;BME280;32333;55.844;-3.210;2022-08-01T10:47:08;99601.00;;;17.85;58.04
45872;BME280;32333;55.844;-3.210;2022-08-01T10:49:43;99597.14;;;18.63;57.23
45872;BME280;32333;55.844;-3.210;2022-08-01T10:52:16;99590.35;;;17.57;59.89
45872;BME280;32333;55.844;-3.210;2022-08-01T10:54:44;99598.34;;;18.23;59.40
45872;BME280;32333;55.844;-3.210;2022-08-01T10:57:19;99592.43;;;17.34;59.90
45872;BME280;32333;55.844;-3.210;2022-08-01T10:59:51;99595.75;;;18.49;58.36
45872;BME280;32333;55.844;-3.210;2022-08-01T11:02:27;99590.67;;;17.08;61.15
45872;BME280;32333;55.844;-3.210;2022-08-01T11:04:57;99586.44;;;17.90;62.86
45872;BME280;32333;55.844;-3.210;2022-08-01T11:07:42;99586.04;;;18.57;61.02
45872;BME280;32333;55.844;-3.210;2022-08-01T11:10:19;99578.94;;;19.37;58.77
45872;BME280;32333;55.844;-3.210;2022-08-01T11:15:24;99571.03;;;20.23;57.39
45872;BME280;32333;55.844;-3.210;2022-08-01T11:17:53;99561.32;;;18.67;56.79
45872;BME280;32333;55.844;-3.210;2022-08-01T11:20:23;99559.30;;;18.58;56.02
45872;BME280;32333;55.844;-3.210;2022-08-01T11:23:24;99555.99;;;19.26;56.10
45872;BME280;32333;55.844;-3.210;2022-08-01T11:26:24;99547.75;;;18.04;58.96
45872;BME280;32333;55.844;-3.210;2022-08-01T11:29:14;99539.32;;;17.79;59.03
45872;BME280;32333;55.844;-3.210;2022-08-01T11:31:42;99531.40;;;18.94;56.27
45872;BME280;32333;55.844;-3.210;2022-08-01T11:34:10;99533.08;;;18.14;56.91
45872;BME280;32333;55.844;-3.210;2022-08-01T11:36:37;99530.21;;;17.99;59.83
45872;BME280;32333;55.844;-3.210;2022-08-01T11:39:13;99522.20;;;18.37;59.67
45872;BME280;32333;55.844;-3.210;2022-08-01T11:41:43;99526.08;;;18.26;61.86
45872;BME280;32333;55.844;-3.210;2022-08-01T11:44:48;99529.04;;;17.86;61.41
45872;BME280;32333;55.844;-3.210;2022-08-01T11:47:16;99528.25;;;18.02;62.04
45872;BME280;32333;55.844;-3.210;2022-08-01T11:49:47;99518.15;;;18.63;60.65
45872;BME280;32333;55.844;-3.210;2022-08-01T11:52:17;99516.53;;;18.06;61.82
45872;BME280;32333;55.844;-3.210;2022-08-01T11:54:47;99512.04;;;17.30;64.21
45872;BME280;32333;55.844;-3.210;2022-08-01T11:57:22;99512.71;;;17.24;65.36
45872;BME280;32333;55.844;-3.210;2022-08-01T11:59:52;99507.80;;;17.86;64.28
45872;BME280;32333;55.844;-3.210;2022-08-01T12:02:22;99507.98;;;17.21;63.33
45872;BME280;32333;55.844;-3.210;2022-08-01T12:04:54;99503.32;;;18.48;61.53
45872;BME280;32333;55.844;-3.210;2022-08-01T12:07:25;99497.99;;;18.97;59.89
45872;BME280;32333;55.844;-3.210;2022-08-01T12:10:02;99498.72;;;18.92;61.37
45872;BME280;32333;55.844;-3.210;2022-08-01T12:14:35;99492.40;;;18.27;60.60
45872;BME280;32333;55.844;-3.210;2022-08-01T12:17:03;99492.14;;;18.60;59.18
45872;BME280;32333;55.844;-3.210;2022-08-01T12:19:30;99494.02;;;19.15;58.84
45872;BME280;32333;55.844;-3.210;2022-08-01T12:22:14;99494.90;;;19.39;58.23
45872;BME280;32333;55.844;-3.210;2022-08-01T12:24:43;99487.62;;;20.25;57.37
45872;BME280;32333;55.844;-3.210;2022-08-01T12:27:10;99479.88;;;19.82;54.70
45872;BME280;32333;55.844;-3.210;2022-08-01T12:29:39;99479.26;;;19.16;55.17
45872;BME280;32333;55.844;-3.210;2022-08-01T12:32:28;99486.26;;;19.23;55.41
45872;BME280;32333;55.844;-3.210;2022-08-01T12:34:56;99478.71;;;18.87;57.22
45872;BME280;32333;55.844;-3.210;2022-08-01T12:37:24;99470.59;;;18.65;56.40
45872;BME280;32333;55.844;-3.210;2022-08-01T12:39:52;99463.82;;;18.87;56.67
45872;BME280;32333;55.844;-3.210;2022-08-01T12:44:36;99462.02;;;18.00;56.24
45872;BME280;32333;55.844;-3.210;2022-08-01T12:47:05;99459.79;;;18.31;58.24
45872;BME280;32333;55.844;-3.210;2022-08-01T12:49:36;99450.40;;;17.80;60.03
45872;BME280;32333;55.844;-3.210;2022-08-01T12:52:05;99456.49;;;17.41;62.10
45872;BME280;32333;55.844;-3.210;2022-08-01T12:55:02;99453.99;;;18.23;59.15
45872;BME280;32333;55.844;-3.210;2022-08-01T12:57:30;99445.05;;;17.46;59.74
45872;BME280;32333;55.844;-3.210;2022-08-01T13:00:12;99452.31;;;17.64;60.48
45872;BME280;32333;55.844;-3.210;2022-08-01T13:02:41;99445.31;;;17.16;62.47
45872;BME280;32333;55.844;-3.210;2022-08-01T13:05:10;99445.65;;;18.44;60.92
45872;BME280;32333;55.844;-3.210;2022-08-01T13:07:40;99440.38;;;17.58;59.92
45872;BME280;32333;55.844;-3.210;2022-08-01T13:10:08;99434.36;;;19.20;58.10
45872;BME280;32333;55.844;-3.210;2022-08-01T13:14:35;99438.06;;;18.70;57.73
45872;BME280;32333;55.844;-3.210;2022-08-01T13:17:02;99438.02;;;18.33;57.96
45872;BME280;32333;55.844;-3.210;2022-08-01T13:19:42;99425.44;;;18.65;58.42
45872;BME280;32333;55.844;-3.210;2022-08-01T13:22:09;99426.76;;;18.48;57.49
45872;BME280;32333;55.844;-3.210;2022-08-01T13:24:36;99416.46;;;18.12;57.95
45872;BME280;32333;55.844;-3.210;2022-08-01T13:27:04;99426.45;;;18.77;58.60
45872;BME280;32333;55.844;-3.210;2022-08-01T13:29:33;99424.45;;;17.58;59.29
45872;BME280;32333;55.844;-3.210;2022-08-01T13:32:12;99420.58;;;17.21;61.20
45872;BME280;32333;55.844;-3.210;2022-08-01T13:34:39;99413.12;;;18.16;59.59